sensor_id;sensor_type;location;lat;lon;timestamp;P1;durP1;ratioP1;P2;durP2;ratioP2
64932;SDS011;51446;53.850;10.662;2024-01-30T00:01:36;9.27;;;7.07;;
64932;SDS011;51446;53.850;10.662;2024-01-30T00:04:01;8.90;;;6.80;;
64932;SDS011;51446;53.850;10.662;2024-01-30T00:06:27;13.70;;;7.30;;
64932;SDS011;51446;53.850;10.662;2024-01-30T00:08:52;9.77;;;7.13;;
64932;SDS011;51446;53.850;10.662;2024-01-30T00:11:18;12.03;;;7.97;;
64932;SDS011;51446;53.850;10.662;2024-01-30T00:13:43;10.77;;;7.23;;
64932;SDS011;51446;53.850;10.662;2024-01-30T00:16:19;10.67;;;6.83;;
64932;SDS011;51446;53.850;10.662;2024-01-30T00:18:45;11.02;;;7.45;;
64932;SDS011;51446;53.850;10.662;2024-01-30T00:21:11;10.47;;;6.73;;
64932;SDS011;51446;53.850;10.662;2024-01-30T00:23:36;9.83;;;6.70;;
64932;SDS011;51446;53.850;10.662;2024-01-30T00:26:01;12.77;;;7.20;;
64932;SDS011;51446;53.850;10.662;2024-01-30T00:28:27;9.45;;;6.93;;
64932;SDS011;51446;53.850;10.662;2024-01-30T00:30:52;11.60;;;7.13;;
64932;SDS011;51446;53.850;10.662;2024-01-30T00:33:17;12.03;;;7.27;;
64932;SDS011;51446;53.850;10.662;2024-01-30T00:35:43;10.47;;;7.00;;
64932;SDS011;51446;53.850;10.662;2024-01-30T00:38:08;9.37;;;6.43;;
64932;SDS011;51446;53.850;10.662;2024-01-30T00:40:33;9.20;;;6.23;;
64932;SDS011;51446;53.850;10.662;2024-01-30T00:42:58;8.93;;;6.50;;
64932;SDS011;51446;53.850;10.662;2024-01-30T00:45:24;9.37;;;6.57;;
64932;SDS011;51446;53.850;10.662;2024-01-30T00:47:49;12.03;;;7.20;;
64932;SDS011;51446;53.850;10.662;2024-01-30T00:50:14;15.20;;;6.53;;
64932;SDS011;51446;53.850;10.662;2024-01-30T00:52:40;9.57;;;6.87;;
64932;SDS011;51446;53.850;10.662;2024-01-30T00:55:06;8.88;;;6.85;;
64932;SDS011;51446;53.850;10.662;2024-01-30T00:57:31;10.33;;;7.43;;
64932;SDS011;51446;53.850;10.662;2024-01-30T00:59:57;9.00;;;6.00;;
64932;SDS011;51446;53.850;10.662;2024-01-30T01:02:22;8.73;;;6.70;;
64932;SDS011;51446;53.850;10.662;2024-01-30T01:04:47;9.90;;;6.63;;
64932;SDS011;51446;53.850;10.662;2024-01-30T01:07:13;10.73;;;7.43;;
64932;SDS011;51446;53.850;10.662;2024-01-30T01:09:38;9.37;;;6.90;;
64932;SDS011;51446;53.850;10.662;2024-01-30T01:12:03;8.63;;;6.50;;
64932;SDS011;51446;53.850;10.662;2024-01-30T01:14:29;11.70;;;7.22;;
64932;SDS011;51446;53.850;10.662;2024-01-30T01:16:55;11.27;;;7.18;;
64932;SDS011;51446;53.850;10.662;2024-01-30T01:19:21;11.10;;;7.57;;
64932;SDS011;51446;53.850;10.662;2024-01-30T01:21:46;11.17;;;7.70;;
64932;SDS011;51446;53.850;10.662;2024-01-30T01:24:11;10.20;;;7.80;;
64932;SDS011;51446;53.850;10.662;2024-01-30T01:26:37;10.87;;;6.50;;
64932;SDS011;51446;53.850;10.662;2024-01-30T01:29:02;9.13;;;7.07;;
64932;SDS011;51446;53.850;10.662;2024-01-30T01:31:34;10.17;;;7.13;;
64932;SDS011;51446;53.850;10.662;2024-01-30T01:34:00;9.02;;;7.00;;
64932;SDS011;51446;53.850;10.662;2024-01-30T01:36:25;11.30;;;7.10;;
64932;SDS011;51446;53.850;10.662;2024-01-30T01:38:50;9.60;;;7.03;;
64932;SDS011;51446;53.850;10.662;2024-01-30T01:41:15;12.57;;;7.00;;
64932;SDS011;51446;53.850;10.662;2024-01-30T01:43:41;9.13;;;6.70;;
64932;SDS011;51446;53.850;10.662;2024-01-30T01:46:06;8.03;;;6.53;;
64932;SDS011;51446;53.850;10.662;2024-01-30T01:48:32;8.83;;;6.77;;
64932;SDS011;51446;53.850;10.662;2024-01-30T01:50:58;12.27;;;7.22;;
64932;SDS011;51446;53.850;10.662;2024-01-30T01:53:24;10.50;;;7.20;;
64932;SDS011;51446;53.850;10.662;2024-01-30T01:55:50;11.73;;;7.75;;
64932;SDS011;51446;53.850;10.662;2024-01-30T01:58:17;8.70;;;7.13;;
64932;SDS011;51446;53.850;10.662;2024-01-30T02:00:45;9.55;;;7.22;;
64932;SDS011;51446;53.850;10.662;2024-01-30T02:03:10;11.60;;;7.10;;
64932;SDS011;51446;53.850;10.662;2024-01-30T02:05:39;8.93;;;6.95;;
64932;SDS011;51446;53.850;10.662;2024-01-30T02:08:05;10.43;;;6.88;;
64932;SDS011;51446;53.850;10.662;2024-01-30T02:10:31;8.90;;;7.30;;
64932;SDS011;51446;53.850;10.662;2024-01-30T02:12:56;13.40;;;7.60;;
64932;SDS011;51446;53.850;10.662;2024-01-30T02:15:22;11.00;;;7.70;;
64932;SDS011;51446;53.850;10.662;2024-01-30T02:17:47;9.37;;;6.40;;
64932;SDS011;51446;53.850;10.662;2024-01-30T02:20:12;10.43;;;7.50;;
64932;SDS011;51446;53.850;10.662;2024-01-30T02:22:38;9.15;;;7.13;;
64932;SDS011;51446;53.850;10.662;2024-01-30T02:25:05;11.37;;;7.20;;
64932;SDS011;51446;53.850;10.662;2024-01-30T02:27:31;10.18;;;7.45;;
64932;SDS011;51446;53.850;10.662;2024-01-30T02:29:56;8.93;;;7.00;;
64932;SDS011;51446;53.850;10.662;2024-01-30T02:32:21;9.70;;;7.03;;
64932;SDS011;51446;53.850;10.662;2024-01-30T02:34:46;9.50;;;6.70;;
64932;SDS011;51446;53.850;10.662;2024-01-30T02:37:12;11.40;;;7.77;;
64932;SDS011;51446;53.850;10.662;2024-01-30T02:39:37;11.57;;;7.70;;
64932;SDS011;51446;53.850;10.662;2024-01-30T02:42:02;9.40;;;8.03;;
64932;SDS011;51446;53.850;10.662;2024-01-30T02:44:27;9.80;;;7.10;;
64932;SDS011;51446;53.850;10.662;2024-01-30T02:46:53;12.23;;;7.20;;
64932;SDS011;51446;53.850;10.662;2024-01-30T02:49:19;8.18;;;7.03;;
64932;SDS011;51446;53.850;10.662;2024-01-30T02:51:44;14.10;;;7.17;;
64932;SDS011;51446;53.850;10.662;2024-01-30T02:54:09;12.57;;;7.80;;
64932;SDS011;51446;53.850;10.662;2024-01-30T02:56:35;10.83;;;6.93;;
64932;SDS011;51446;53.850;10.662;2024-01-30T02:59:00;10.27;;;6.93;;
64932;SDS011;51446;53.850;10.662;2024-01-30T03:01:25;9.50;;;6.97;;
64932;SDS011;51446;53.850;10.662;2024-01-30T03:03:50;10.37;;;7.03;;
64932;SDS011;51446;53.850;10.662;2024-01-30T03:06:16;11.97;;;7.00;;
64932;SDS011;51446;53.850;10.662;2024-01-30T03:08:42;11.27;;;7.78;;
64932;SDS011;51446;53.850;10.662;2024-01-30T03:11:07;10.07;;;6.63;;
64932;SDS011;51446;53.850;10.662;2024-01-30T03:13:33;8.70;;;6.63;;
64932;SDS011;51446;53.850;10.662;2024-01-30T03:15:58;9.90;;;7.20;;
64932;SDS011;51446;53.850;10.662;2024-01-30T03:18:23;10.30;;;6.87;;
64932;SDS011;51446;53.850;10.662;2024-01-30T03:20:48;10.27;;;7.37;;
64932;SDS011;51446;53.850;10.662;2024-01-30T03:23:14;9.20;;;6.73;;
64932;SDS011;51446;53.850;10.662;2024-01-30T03:25:39;9.63;;;6.73;;
64932;SDS011;51446;53.850;10.662;2024-01-30T03:28:04;9.40;;;7.17;;
64932;SDS011;51446;53.850;10.662;2024-01-30T03:30:30;9.20;;;7.30;;
64932;SDS011;51446;53.850;10.662;2024-01-30T03:32:55;10.63;;;6.77;;
64932;SDS011;51446;53.850;10.662;2024-01-30T03:35:20;9.83;;;6.87;;
64932;SDS011;51446;53.850;10.662;2024-01-30T03:37:45;9.20;;;7.17;;
64932;SDS011;51446;53.850;10.662;2024-01-30T03:40:11;10.63;;;7.57;;
64932;SDS011;51446;53.850;10.662;2024-01-30T03:42:36;11.77;;;6.80;;
64932;SDS011;51446;53.850;10.662;2024-01-30T03:45:02;10.97;;;7.03;;
64932;SDS011;51446;53.850;10.662;2024-01-30T03:47:27;13.17;;;6.97;;
64932;SDS011;51446;53.850;10.662;2024-01-30T03:49:52;9.47;;;7.07;;
64932;SDS011;51446;53.850;10.662;2024-01-30T03:52:18;10.73;;;7.07;;
64932;SDS011;51446;53.850;10.662;2024-01-30T03:54:43;9.47;;;6.97;;
64932;SDS011;51446;53.850;10.662;2024-01-30T03:57:08;10.37;;;6.90;;
64932;SDS011;51446;53.850;10.662;2024-01-30T03:59:33;7.87;;;6.53;;
64932;SDS011;51446;53.850;10.662;2024-01-30T04:01:59;10.53;;;6.93;;
64932;SDS011;51446;53.850;10.662;2024-01-30T04:04:24;9.50;;;6.78;;
64932;SDS011;51446;53.850;10.662;2024-01-30T04:06:50;10.13;;;6.93;;
64932;SDS011;51446;53.850;10.662;2024-01-30T04:09:15;9.90;;;7.20;;
64932;SDS011;51446;53.850;10.662;2024-01-30T04:11:40;9.77;;;6.50;;
64932;SDS011;51446;53.850;10.662;2024-01-30T04:14:07;10.95;;;6.95;;
64932;SDS011;51446;53.850;10.662;2024-01-30T04:16:32;11.20;;;6.83;;
64932;SDS011;51446;53.850;10.662;2024-01-30T04:18:57;12.57;;;7.37;;
64932;SDS011;51446;53.850;10.662;2024-01-30T04:21:23;11.23;;;7.10;;
64932;SDS011;51446;53.850;10.662;2024-01-30T04:23:48;8.85;;;6.57;;
64932;SDS011;51446;53.850;10.662;2024-01-30T04:26:15;10.27;;;7.30;;
64932;SDS011;51446;53.850;10.662;2024-01-30T04:28:46;9.43;;;6.73;;
64932;SDS011;51446;53.850;10.662;2024-01-30T04:31:12;10.48;;;6.53;;
64932;SDS011;51446;53.850;10.662;2024-01-30T04:33:37;8.47;;;6.53;;
64932;SDS011;51446;53.850;10.662;2024-01-30T04:36:03;9.98;;;7.25;;
64932;SDS011;51446;53.850;10.662;2024-01-30T04:38:28;11.02;;;7.47;;
64932;SDS011;51446;53.850;10.662;2024-01-30T04:40:54;10.27;;;7.90;;
64932;SDS011;51446;53.850;10.662;2024-01-30T04:43:19;10.20;;;7.10;;
64932;SDS011;51446;53.850;10.662;2024-01-30T04:45:44;10.55;;;6.90;;
64932;SDS011;51446;53.850;10.662;2024-01-30T04:48:10;9.43;;;6.90;;
64932;SDS011;51446;53.850;10.662;2024-01-30T04:50:35;12.03;;;7.27;;
64932;SDS011;51446;53.850;10.662;2024-01-30T04:53:01;10.43;;;7.50;;
64932;SDS011;51446;53.850;10.662;2024-01-30T04:55:26;12.30;;;8.07;;
64932;SDS011;51446;53.850;10.662;2024-01-30T04:57:51;17.23;;;9.23;;
64932;SDS011;51446;53.850;10.662;2024-01-30T05:00:16;11.50;;;8.00;;
64932;SDS011;51446;53.850;10.662;2024-01-30T05:02:42;12.70;;;7.95;;
64932;SDS011;51446;53.850;10.662;2024-01-30T05:05:07;12.23;;;8.10;;
64932;SDS011;51446;53.850;10.662;2024-01-30T05:07:33;12.97;;;8.03;;
64932;SDS011;51446;53.850;10.662;2024-01-30T05:09:59;11.18;;;8.25;;
64932;SDS011;51446;53.850;10.662;2024-01-30T05:12:24;11.53;;;7.77;;
64932;SDS011;51446;53.850;10.662;2024-01-30T05:14:49;11.63;;;7.60;;
64932;SDS011;51446;53.850;10.662;2024-01-30T05:17:15;10.20;;;7.60;;
64932;SDS011;51446;53.850;10.662;2024-01-30T05:19:40;10.60;;;7.77;;
64932;SDS011;51446;53.850;10.662;2024-01-30T05:22:05;11.20;;;7.70;;
64932;SDS011;51446;53.850;10.662;2024-01-30T05:24:30;11.03;;;8.07;;
64932;SDS011;51446;53.850;10.662;2024-01-30T05:26:56;9.20;;;7.37;;
64932;SDS011;51446;53.850;10.662;2024-01-30T05:29:21;11.40;;;7.93;;
64932;SDS011;51446;53.850;10.662;2024-01-30T05:31:47;12.57;;;8.07;;
64932;SDS011;51446;53.850;10.662;2024-01-30T05:34:12;9.13;;;7.27;;
64932;SDS011;51446;53.850;10.662;2024-01-30T05:36:37;10.90;;;7.83;;
64932;SDS011;51446;53.850;10.662;2024-01-30T05:39:02;14.33;;;8.33;;
64932;SDS011;51446;53.850;10.662;2024-01-30T05:41:28;17.33;;;8.63;;
64932;SDS011;51446;53.850;10.662;2024-01-30T05:43:53;11.33;;;8.87;;
64932;SDS011;51446;53.850;10.662;2024-01-30T05:46:18;13.27;;;8.60;;
64932;SDS011;51446;53.850;10.662;2024-01-30T05:48:43;12.60;;;8.80;;
64932;SDS011;51446;53.850;10.662;2024-01-30T05:51:09;13.83;;;9.27;;
64932;SDS011;51446;53.850;10.662;2024-01-30T05:53:34;13.10;;;8.93;;
64932;SDS011;51446;53.850;10.662;2024-01-30T05:56:03;12.13;;;8.93;;
64932;SDS011;51446;53.850;10.662;2024-01-30T05:58:28;12.00;;;7.90;;
64932;SDS011;51446;53.850;10.662;2024-01-30T06:00:54;12.85;;;8.93;;
64932;SDS011;51446;53.850;10.662;2024-01-30T06:03:19;14.27;;;8.93;;
64932;SDS011;51446;53.850;10.662;2024-01-30T06:05:44;12.95;;;8.52;;
64932;SDS011;51446;53.850;10.662;2024-01-30T06:08:10;13.20;;;8.87;;
64932;SDS011;51446;53.850;10.662;2024-01-30T06:10:35;14.70;;;9.30;;
64932;SDS011;51446;53.850;10.662;2024-01-30T06:13:00;15.03;;;9.37;;
64932;SDS011;51446;53.850;10.662;2024-01-30T06:15:26;13.73;;;9.13;;
64932;SDS011;51446;53.850;10.662;2024-01-30T06:17:52;13.43;;;9.27;;
64932;SDS011;51446;53.850;10.662;2024-01-30T06:20:17;12.53;;;9.20;;
64932;SDS011;51446;53.850;10.662;2024-01-30T06:22:43;13.93;;;9.63;;
64932;SDS011;51446;53.850;10.662;2024-01-30T06:25:08;16.33;;;9.33;;
64932;SDS011;51446;53.850;10.662;2024-01-30T06:27:33;14.53;;;9.70;;
64932;SDS011;51446;53.850;10.662;2024-01-30T06:29:58;13.47;;;9.47;;
64932;SDS011;51446;53.850;10.662;2024-01-30T06:32:24;14.17;;;8.90;;
64932;SDS011;51446;53.850;10.662;2024-01-30T06:34:49;15.15;;;10.05;;
64932;SDS011;51446;53.850;10.662;2024-01-30T06:37:14;14.33;;;9.77;;
64932;SDS011;51446;53.850;10.662;2024-01-30T06:39:40;14.33;;;9.87;;
64932;SDS011;51446;53.850;10.662;2024-01-30T06:42:05;15.97;;;9.67;;
64932;SDS011;51446;53.850;10.662;2024-01-30T06:44:30;14.57;;;9.90;;
64932;SDS011;51446;53.850;10.662;2024-01-30T06:46:55;13.17;;;9.60;;
64932;SDS011;51446;53.850;10.662;2024-01-30T06:49:21;12.97;;;8.93;;
64932;SDS011;51446;53.850;10.662;2024-01-30T06:51:47;11.57;;;9.50;;
64932;SDS011;51446;53.850;10.662;2024-01-30T06:54:12;14.33;;;9.67;;
64932;SDS011;51446;53.850;10.662;2024-01-30T06:56:37;14.00;;;9.85;;
64932;SDS011;51446;53.850;10.662;2024-01-30T06:59:02;16.08;;;10.00;;
64932;SDS011;51446;53.850;10.662;2024-01-30T07:01:30;15.50;;;10.02;;
64932;SDS011;51446;53.850;10.662;2024-01-30T07:03:56;13.40;;;9.15;;
64932;SDS011;51446;53.850;10.662;2024-01-30T07:06:22;15.60;;;9.68;;
64932;SDS011;51446;53.850;10.662;2024-01-30T07:08:48;16.30;;;10.03;;
64932;SDS011;51446;53.850;10.662;2024-01-30T07:11:18;14.48;;;9.95;;
64932;SDS011;51446;53.850;10.662;2024-01-30T07:13:47;16.98;;;9.98;;
64932;SDS011;51446;53.850;10.662;2024-01-30T07:16:13;13.97;;;10.43;;
64932;SDS011;51446;53.850;10.662;2024-01-30T07:18:39;15.40;;;9.75;;
64932;SDS011;51446;53.850;10.662;2024-01-30T07:21:04;16.93;;;10.57;;
64932;SDS011;51446;53.850;10.662;2024-01-30T07:23:30;15.53;;;10.27;;
64932;SDS011;51446;53.850;10.662;2024-01-30T07:25:55;16.57;;;9.93;;
64932;SDS011;51446;53.850;10.662;2024-01-30T07:28:20;14.90;;;10.23;;
64932;SDS011;51446;53.850;10.662;2024-01-30T07:30:45;18.07;;;10.37;;
64932;SDS011;51446;53.850;10.662;2024-01-30T07:33:12;18.85;;;10.63;;
64932;SDS011;51446;53.850;10.662;2024-01-30T07:35:37;17.30;;;10.13;;
64932;SDS011;51446;53.850;10.662;2024-01-30T07:38:03;15.85;;;10.68;;
64932;SDS011;51446;53.850;10.662;2024-01-30T07:40:28;17.70;;;10.63;;
64932;SDS011;51446;53.850;10.662;2024-01-30T07:42:53;16.77;;;11.10;;
64932;SDS011;51446;53.850;10.662;2024-01-30T07:45:19;20.10;;;11.27;;
64932;SDS011;51446;53.850;10.662;2024-01-30T07:47:49;17.00;;;10.77;;
64932;SDS011;51446;53.850;10.662;2024-01-30T07:50:14;14.10;;;9.93;;
64932;SDS011;51446;53.850;10.662;2024-01-30T07:52:40;14.57;;;10.03;;
64932;SDS011;51446;53.850;10.662;2024-01-30T07:55:05;16.17;;;10.20;;
64932;SDS011;51446;53.850;10.662;2024-01-30T07:57:32;13.02;;;9.32;;
64932;SDS011;51446;53.850;10.662;2024-01-30T07:59:59;15.47;;;9.40;;
64932;SDS011;51446;53.850;10.662;2024-01-30T08:02:24;17.37;;;9.97;;
64932;SDS011;51446;53.850;10.662;2024-01-30T08:04:49;14.98;;;9.68;;
64932;SDS011;51446;53.850;10.662;2024-01-30T08:07:15;15.17;;;9.63;;
64932;SDS011;51446;53.850;10.662;2024-01-30T08:09:40;12.73;;;9.30;;
64932;SDS011;51446;53.850;10.662;2024-01-30T08:12:05;16.57;;;10.17;;
64932;SDS011;51446;53.850;10.662;2024-01-30T08:14:31;15.13;;;9.70;;
64932;SDS011;51446;53.850;10.662;2024-01-30T08:16:56;16.53;;;10.47;;
64932;SDS011;51446;53.850;10.662;2024-01-30T08:19:21;16.90;;;10.60;;
64932;SDS011;51446;53.850;10.662;2024-01-30T08:21:47;16.87;;;11.47;;
64932;SDS011;51446;53.850;10.662;2024-01-30T08:24:12;20.13;;;12.63;;
64932;SDS011;51446;53.850;10.662;2024-01-30T08:26:37;20.00;;;11.52;;
64932;SDS011;51446;53.850;10.662;2024-01-30T08:29:03;19.10;;;11.63;;
64932;SDS011;51446;53.850;10.662;2024-01-30T08:31:28;16.30;;;11.23;;
64932;SDS011;51446;53.850;10.662;2024-01-30T08:33:54;17.23;;;10.40;;
64932;SDS011;51446;53.850;10.662;2024-01-30T08:36:19;16.75;;;10.80;;
64932;SDS011;51446;53.850;10.662;2024-01-30T08:38:45;16.58;;;10.48;;
64932;SDS011;51446;53.850;10.662;2024-01-30T08:41:10;16.73;;;10.73;;
64932;SDS011;51446;53.850;10.662;2024-01-30T08:43:35;19.00;;;12.13;;
64932;SDS011;51446;53.850;10.662;2024-01-30T08:46:01;15.88;;;10.77;;
64932;SDS011;51446;53.850;10.662;2024-01-30T08:48:27;16.30;;;10.07;;
64932;SDS011;51446;53.850;10.662;2024-01-30T08:50:52;17.60;;;10.53;;
64932;SDS011;51446;53.850;10.662;2024-01-30T08:53:18;16.65;;;10.93;;
64932;SDS011;51446;53.850;10.662;2024-01-30T08:55:43;15.67;;;10.13;;
64932;SDS011;51446;53.850;10.662;2024-01-30T08:58:09;16.20;;;9.80;;
64932;SDS011;51446;53.850;10.662;2024-01-30T09:00:34;19.25;;;10.32;;
64932;SDS011;51446;53.850;10.662;2024-01-30T09:03:00;17.30;;;9.65;;
64932;SDS011;51446;53.850;10.662;2024-01-30T09:05:25;14.52;;;9.55;;
64932;SDS011;51446;53.850;10.662;2024-01-30T09:07:50;15.20;;;10.00;;
64932;SDS011;51446;53.850;10.662;2024-01-30T09:10:15;16.33;;;9.97;;
64932;SDS011;51446;53.850;10.662;2024-01-30T09:12:41;14.77;;;9.87;;
64932;SDS011;51446;53.850;10.662;2024-01-30T09:15:06;17.50;;;9.73;;
64932;SDS011;51446;53.850;10.662;2024-01-30T09:17:32;15.50;;;9.93;;
64932;SDS011;51446;53.850;10.662;2024-01-30T09:19:58;16.38;;;10.23;;
64932;SDS011;51446;53.850;10.662;2024-01-30T09:22:23;16.40;;;10.60;;
64932;SDS011;51446;53.850;10.662;2024-01-30T09:24:48;18.73;;;10.50;;
64932;SDS011;51446;53.850;10.662;2024-01-30T09:27:14;15.90;;;10.73;;
64932;SDS011;51446;53.850;10.662;2024-01-30T09:29:39;16.40;;;9.80;;
64932;SDS011;51446;53.850;10.662;2024-01-30T09:32:05;14.33;;;9.53;;
64932;SDS011;51446;53.850;10.662;2024-01-30T09:34:31;15.53;;;9.93;;
64932;SDS011;51446;53.850;10.662;2024-01-30T09:36:56;15.10;;;10.20;;
64932;SDS011;51446;53.850;10.662;2024-01-30T09:39:22;16.27;;;10.18;;
64932;SDS011;51446;53.850;10.662;2024-01-30T09:41:54;16.27;;;10.00;;
64932;SDS011;51446;53.850;10.662;2024-01-30T09:44:25;15.10;;;9.50;;
64932;SDS011;51446;53.850;10.662;2024-01-30T09:46:53;16.58;;;10.10;;
64932;SDS011;51446;53.850;10.662;2024-01-30T09:49:20;12.38;;;9.63;;
64932;SDS011;51446;53.850;10.662;2024-01-30T09:51:45;14.93;;;9.67;;
64932;SDS011;51446;53.850;10.662;2024-01-30T09:54:13;14.13;;;9.32;;
64932;SDS011;51446;53.850;10.662;2024-01-30T09:56:39;12.68;;;8.27;;
64932;SDS011;51446;53.850;10.662;2024-01-30T09:59:04;14.10;;;8.83;;
64932;SDS011;51446;53.850;10.662;2024-01-30T10:01:29;13.33;;;8.70;;
64932;SDS011;51446;53.850;10.662;2024-01-30T10:03:56;15.82;;;9.30;;
64932;SDS011;51446;53.850;10.662;2024-01-30T10:06:21;13.50;;;9.00;;
64932;SDS011;51446;53.850;10.662;2024-01-30T10:08:49;16.25;;;10.27;;
64932;SDS011;51446;53.850;10.662;2024-01-30T10:11:14;14.20;;;9.93;;
64932;SDS011;51446;53.850;10.662;2024-01-30T10:13:40;15.57;;;8.97;;
64932;SDS011;51446;53.850;10.662;2024-01-30T10:16:05;18.20;;;9.80;;
64932;SDS011;51446;53.850;10.662;2024-01-30T10:18:31;11.47;;;8.50;;
64932;SDS011;51446;53.850;10.662;2024-01-30T10:20:57;18.20;;;9.13;;
64932;SDS011;51446;53.850;10.662;2024-01-30T10:23:22;15.40;;;9.40;;
64932;SDS011;51446;53.850;10.662;2024-01-30T10:25:47;17.73;;;9.70;;
64932;SDS011;51446;53.850;10.662;2024-01-30T10:28:12;14.30;;;9.53;;
64932;SDS011;51446;53.850;10.662;2024-01-30T10:30:38;17.73;;;9.70;;
64932;SDS011;51446;53.850;10.662;2024-01-30T10:33:03;13.63;;;9.10;;
64932;SDS011;51446;53.850;10.662;2024-01-30T10:35:29;14.67;;;9.40;;
64932;SDS011;51446;53.850;10.662;2024-01-30T10:37:54;13.20;;;9.43;;
64932;SDS011;51446;53.850;10.662;2024-01-30T10:40:23;18.20;;;10.20;;
64932;SDS011;51446;53.850;10.662;2024-01-30T10:42:52;16.38;;;9.70;;
64932;SDS011;51446;53.850;10.662;2024-01-30T10:45:20;14.30;;;9.65;;
64932;SDS011;51446;53.850;10.662;2024-01-30T10:47:50;14.73;;;9.37;;
64932;SDS011;51446;53.850;10.662;2024-01-30T10:50:19;20.38;;;12.57;;
64932;SDS011;51446;53.850;10.662;2024-01-30T10:52:45;15.00;;;9.68;;
64932;SDS011;51446;53.850;10.662;2024-01-30T10:55:11;16.25;;;9.80;;
64932;SDS011;51446;53.850;10.662;2024-01-30T10:57:38;20.55;;;10.70;;
64932;SDS011;51446;53.850;10.662;2024-01-30T11:00:04;16.43;;;9.77;;
64932;SDS011;51446;53.850;10.662;2024-01-30T11:02:36;16.57;;;9.57;;
64932;SDS011;51446;53.850;10.662;2024-01-30T11:05:04;21.00;;;10.38;;
64932;SDS011;51446;53.850;10.662;2024-01-30T11:07:30;14.60;;;9.55;;
64932;SDS011;51446;53.850;10.662;2024-01-30T11:12:24;16.40;;;9.43;;
64932;SDS011;51446;53.850;10.662;2024-01-30T11:17:39;13.15;;;8.82;;
64932;SDS011;51446;53.850;10.662;2024-01-30T11:20:09;14.00;;;9.40;;
64932;SDS011;51446;53.850;10.662;2024-01-30T11:22:35;14.68;;;9.02;;
64932;SDS011;51446;53.850;10.662;2024-01-30T11:25:01;13.60;;;9.07;;
64932;SDS011;51446;53.850;10.662;2024-01-30T11:27:28;12.07;;;8.88;;
64932;SDS011;51446;53.850;10.662;2024-01-30T11:30:00;12.70;;;9.33;;
64932;SDS011;51446;53.850;10.662;2024-01-30T11:32:27;19.85;;;10.38;;
64932;SDS011;51446;53.850;10.662;2024-01-30T11:34:54;15.63;;;9.80;;
64932;SDS011;51446;53.850;10.662;2024-01-30T11:37:20;15.18;;;9.07;;
64932;SDS011;51446;53.850;10.662;2024-01-30T11:39:46;13.07;;;9.10;;
64932;SDS011;51446;53.850;10.662;2024-01-30T11:42:13;11.90;;;9.02;;
64932;SDS011;51446;53.850;10.662;2024-01-30T11:44:38;15.33;;;9.30;;
64932;SDS011;51446;53.850;10.662;2024-01-30T11:47:04;15.00;;;9.73;;
64932;SDS011;51446;53.850;10.662;2024-01-30T11:49:29;12.13;;;8.80;;
64932;SDS011;51446;53.850;10.662;2024-01-30T11:51:54;17.13;;;9.50;;
64932;SDS011;51446;53.850;10.662;2024-01-30T11:54:20;15.57;;;9.30;;
64932;SDS011;51446;53.850;10.662;2024-01-30T11:56:45;12.98;;;9.48;;
64932;SDS011;51446;53.850;10.662;2024-01-30T11:59:10;15.80;;;10.10;;
64932;SDS011;51446;53.850;10.662;2024-01-30T12:01:36;16.93;;;9.67;;
64932;SDS011;51446;53.850;10.662;2024-01-30T12:04:01;16.30;;;10.03;;
64932;SDS011;51446;53.850;10.662;2024-01-30T12:06:27;15.65;;;9.68;;
64932;SDS011;51446;53.850;10.662;2024-01-30T12:08:57;15.77;;;9.83;;
64932;SDS011;51446;53.850;10.662;2024-01-30T12:11:22;14.30;;;9.68;;
64932;SDS011;51446;53.850;10.662;2024-01-30T12:13:48;14.27;;;10.20;;
64932;SDS011;51446;53.850;10.662;2024-01-30T12:16:13;18.20;;;9.73;;
64932;SDS011;51446;53.850;10.662;2024-01-30T12:18:38;14.73;;;10.00;;
64932;SDS011;51446;53.850;10.662;2024-01-30T12:21:04;14.67;;;9.73;;
64932;SDS011;51446;53.850;10.662;2024-01-30T12:23:29;13.95;;;9.45;;
64932;SDS011;51446;53.850;10.662;2024-01-30T12:25:55;11.77;;;9.40;;
64932;SDS011;51446;53.850;10.662;2024-01-30T12:28:21;17.83;;;9.60;;
64932;SDS011;51446;53.850;10.662;2024-01-30T12:30:46;14.63;;;9.77;;
64932;SDS011;51446;53.850;10.662;2024-01-30T12:33:17;14.90;;;9.43;;
64932;SDS011;51446;53.850;10.662;2024-01-30T12:35:46;14.77;;;9.60;;
64932;SDS011;51446;53.850;10.662;2024-01-30T12:38:15;15.80;;;9.68;;
64932;SDS011;51446;53.850;10.662;2024-01-30T12:40:40;16.73;;;10.17;;
64932;SDS011;51446;53.850;10.662;2024-01-30T12:43:05;15.90;;;9.93;;
64932;SDS011;51446;53.850;10.662;2024-01-30T12:45:31;14.53;;;9.40;;
64932;SDS011;51446;53.850;10.662;2024-01-30T12:47:56;12.90;;;8.93;;
64932;SDS011;51446;53.850;10.662;2024-01-30T12:50:23;12.82;;;8.43;;
64932;SDS011;51446;53.850;10.662;2024-01-30T12:52:48;14.30;;;9.32;;
64932;SDS011;51446;53.850;10.662;2024-01-30T12:55:14;14.30;;;8.97;;
64932;SDS011;51446;53.850;10.662;2024-01-30T12:57:39;12.50;;;8.93;;
64932;SDS011;51446;53.850;10.662;2024-01-30T13:00:05;14.73;;;9.23;;
64932;SDS011;51446;53.850;10.662;2024-01-30T13:02:33;13.57;;;8.55;;
64932;SDS011;51446;53.850;10.662;2024-01-30T13:05:02;13.30;;;8.98;;
64932;SDS011;51446;53.850;10.662;2024-01-30T13:07:28;13.65;;;9.73;;
64932;SDS011;51446;53.850;10.662;2024-01-30T13:09:53;13.37;;;8.73;;
64932;SDS011;51446;53.850;10.662;2024-01-30T13:12:18;13.23;;;9.17;;
64932;SDS011;51446;53.850;10.662;2024-01-30T13:14:43;13.27;;;8.70;;
64932;SDS011;51446;53.850;10.662;2024-01-30T13:17:09;12.60;;;9.20;;
64932;SDS011;51446;53.850;10.662;2024-01-30T13:19:34;12.53;;;8.50;;
64932;SDS011;51446;53.850;10.662;2024-01-30T13:21:59;14.90;;;9.13;;
64932;SDS011;51446;53.850;10.662;2024-01-30T13:24:25;19.53;;;11.70;;
64932;SDS011;51446;53.850;10.662;2024-01-30T13:26:53;17.07;;;10.90;;
64932;SDS011;51446;53.850;10.662;2024-01-30T13:29:19;17.83;;;10.77;;
64932;SDS011;51446;53.850;10.662;2024-01-30T13:31:44;13.80;;;9.20;;
64932;SDS011;51446;53.850;10.662;2024-01-30T13:34:11;15.85;;;9.77;;
64932;SDS011;51446;53.850;10.662;2024-01-30T13:36:37;15.35;;;10.07;;
64932;SDS011;51446;53.850;10.662;2024-01-30T13:39:03;16.13;;;9.52;;
64932;SDS011;51446;53.850;10.662;2024-01-30T13:41:29;13.80;;;9.52;;
64932;SDS011;51446;53.850;10.662;2024-01-30T13:43:55;15.43;;;9.60;;
64932;SDS011;51446;53.850;10.662;2024-01-30T13:46:20;14.17;;;8.93;;
64932;SDS011;51446;53.850;10.662;2024-01-30T13:48:45;12.40;;;8.60;;
64932;SDS011;51446;53.850;10.662;2024-01-30T13:51:10;12.87;;;8.53;;
64932;SDS011;51446;53.850;10.662;2024-01-30T13:53:37;13.30;;;8.73;;
64932;SDS011;51446;53.850;10.662;2024-01-30T13:56:03;14.17;;;8.70;;
64932;SDS011;51446;53.850;10.662;2024-01-30T13:58:28;13.93;;;8.20;;
64932;SDS011;51446;53.850;10.662;2024-01-30T14:00:54;13.80;;;8.63;;
64932;SDS011;51446;53.850;10.662;2024-01-30T14:03:19;11.63;;;7.70;;
64932;SDS011;51446;53.850;10.662;2024-01-30T14:05:44;12.90;;;7.87;;
64932;SDS011;51446;53.850;10.662;2024-01-30T14:08:09;11.83;;;8.13;;
64932;SDS011;51446;53.850;10.662;2024-01-30T14:10:35;12.75;;;8.65;;
64932;SDS011;51446;53.850;10.662;2024-01-30T14:13:00;14.37;;;8.03;;
64932;SDS011;51446;53.850;10.662;2024-01-30T14:15:25;13.63;;;8.47;;
64932;SDS011;51446;53.850;10.662;2024-01-30T14:17:51;16.17;;;8.30;;